Time;durP1;ratioP1;P1;durP2;ratioP2;P2;SDS_P1;SDS_P2;PMS_P1;PMS_P2;Temp;Humidity;BMP_temperature;BMP_pressure;BME280_temperature;BME280_humidity;BME280_pressure;Samples;Min_cycle;Max_cycle;Signal;HPM_P1;HPM_P2
2021/10/27 00:00:32;;;;;;;9.57;2.38;;;15.60;98.80;;;;;;5079503;28;20727;-57
2021/10/27 00:02:59;;;;;;;14.88;3.53;;;15.60;98.80;;;;;;5080994;28;20052;-57
2021/10/27 00:05:26;;;;;;;12.77;2.38;;;15.60;98.70;;;;;;5081136;28;20522;-58
2021/10/27 00:07:53;;;;;;;9.43;3.00;;;15.60;98.60;;;;;;5082185;28;20051;-58
2021/10/27 00:10:19;;;;;;;12.45;2.47;;;15.60;98.60;;;;;;5084574;28;20050;-57
2021/10/27 00:12:47;;;;;;;7.88;2.50;;;15.70;98.60;;;;;;5083924;28;20075;-58
2021/10/27 00:15:15;;;;;;;9.75;2.47;;;15.60;98.40;;;;;;5083429;28;20079;-58
2021/10/27 00:17:42;;;;;;;14.32;2.22;;;15.60;98.50;;;;;;5083180;28;20366;-58
2021/10/27 00:20:09;;;;;;;16.75;3.40;;;15.70;98.50;;;;;;5083936;28;20075;-59
2021/10/27 00:22:37;;;;;;;8.57;2.33;;;15.70;98.50;;;;;;5062686;28;20502;-58
2021/10/27 00:25:04;;;;;;;13.52;3.08;;;15.70;98.50;;;;;;5083848;28;20234;-58
2021/10/27 00:27:31;;;;;;;14.65;3.13;;;15.70;98.50;;;;;;5083449;28;20423;-59
2021/10/27 00:29:57;;;;;;;7.90;2.78;;;15.70;98.50;;;;;;5082064;28;20495;-59
2021/10/27 00:32:24;;;;;;;9.13;2.10;;;15.70;98.60;;;;;;5082497;28;20119;-59
2021/10/27 00:34:51;;;;;;;7.07;2.40;;;15.70;98.80;;;;;;5083292;28;20127;-58
2021/10/27 00:37:20;;;;;;;11.10;2.30;;;15.70;98.90;;;;;;5083391;28;20069;-58
2021/10/27 00:39:49;;;;;;;8.68;2.45;;;15.70;99.10;;;;;;5083618;28;20276;-58
2021/10/27 00:42:16;;;;;;;9.48;2.25;;;15.70;99.20;;;;;;5084038;28;20527;-58
2021/10/27 00:44:43;;;;;;;7.53;1.95;;;15.70;99.30;;;;;;5082823;28;20123;-58
2021/10/27 00:47:11;;;;;;;8.57;2.05;;;15.70;99.30;;;;;;5083724;28;20132;-58
2021/10/27 00:49:42;;;;;;;11.38;2.05;;;15.70;99.10;;;;;;5083926;28;20098;-58
2021/10/27 00:52:13;;;;;;;6.97;2.67;;;15.70;99.30;;;;;;5084792;28;20086;-58
2021/10/27 00:54:42;;;;;;;8.23;2.33;;;15.70;99.30;;;;;;5085616;28;20112;-58
2021/10/27 00:57:09;;;;;;;8.48;1.67;;;15.60;99.00;;;;;;5087224;28;20040;-59
2021/10/27 00:59:39;;;;;;;8.43;1.95;;;15.70;98.90;;;;;;5085435;28;20090;-58
2021/10/27 01:02:06;;;;;;;9.82;2.13;;;15.70;99.00;;;;;;5086000;28;20497;-58
2021/10/27 01:04:34;;;;;;;7.30;1.95;;;15.70;99.00;;;;;;5084446;28;20048;-58
2021/10/27 01:07:00;;;;;;;6.97;2.10;;;15.70;98.90;;;;;;5067389;28;20055;-58
2021/10/27 01:09:27;;;;;;;9.45;1.70;;;15.70;98.80;;;;;;5082789;28;20101;-59
2021/10/27 01:11:54;;;;;;;8.02;1.75;;;15.70;98.70;;;;;;5085050;28;20406;-58
2021/10/27 01:14:21;;;;;;;5.85;1.95;;;15.70;98.80;;;;;;5084218;28;20287;-58
2021/10/27 01:16:47;;;;;;;8.70;2.00;;;15.70;98.80;;;;;;5082822;28;20080;-58
2021/10/27 01:19:14;;;;;;;8.57;1.90;;;15.70;99.00;;;;;;5083415;28;20044;-58
2021/10/27 01:21:45;;;;;;;11.68;2.30;;;15.60;99.00;;;;;;5087763;28;20047;-57
2021/10/27 01:24:12;;;;;;;10.73;1.98;;;15.60;99.00;;;;;;5087566;28;20119;-58
2021/10/27 01:26:39;;;;;;;10.18;2.33;;;15.60;99.00;;;;;;5087806;28;20341;-58
2021/10/27 01:29:06;;;;;;;8.80;1.80;;;15.60;99.00;;;;;;5067873;28;20122;-57
2021/10/27 01:31:32;;;;;;;9.40;2.05;;;15.70;98.90;;;;;;5089283;28;20151;-58
2021/10/27 01:34:00;;;;;;;5.68;1.60;;;15.60;98.80;;;;;;5087879;28;20444;-58
2021/10/27 01:36:29;;;;;;;7.40;1.83;;;15.70;98.80;;;;;;5088505;28;20097;-58
2021/10/27 01:38:56;;;;;;;6.85;1.65;;;15.60;98.50;;;;;;5088174;28;20491;-58
2021/10/27 01:41:23;;;;;;;9.52;2.38;;;15.60;98.20;;;;;;5088216;28;20040;-58
2021/10/27 01:43:54;;;;;;;8.73;1.88;;;15.70;98.00;;;;;;5087835;28;20063;-58
2021/10/27 01:46:34;;;;;;;5.63;1.50;;;15.70;98.10;;;;;;5078845;28;20088;-58
2021/10/27 01:49:02;;;;;;;6.05;2.08;;;15.70;97.70;;;;;;5080075;28;20085;-58
2021/10/27 01:51:29;;;;;;;4.68;1.73;;;15.70;97.50;;;;;;5085277;28;20082;-58
2021/10/27 01:53:56;;;;;;;9.05;2.25;;;15.70;97.50;;;;;;5084231;28;20342;-58
2021/10/27 01:56:23;;;;;;;7.50;1.95;;;15.80;97.50;;;;;;5086616;28;20080;-58
2021/10/27 01:58:50;;;;;;;7.82;2.30;;;15.70;97.50;;;;;;5085192;28;20076;-58
2021/10/27 02:01:17;;;;;;;5.20;1.75;;;15.80;97.60;;;;;;5084202;28;22089;-58
2021/10/27 02:03:44;;;;;;;9.63;2.47;;;15.80;97.60;;;;;;5079699;28;20113;-58
2021/10/27 02:06:11;;;;;;;7.13;1.88;;;15.70;97.60;;;;;;5084653;28;20129;-58
2021/10/27 02:08:38;;;;;;;8.27;2.10;;;15.80;97.60;;;;;;5085132;28;20144;-58
2021/10/27 02:11:06;;;;;;;8.10;2.03;;;15.70;97.60;;;;;;5086371;28;20119;-59
2021/10/27 02:13:49;;;;;;;6.35;2.42;;;15.70;97.70;;;;;;5084788;28;20090;-58
2021/10/27 02:16:16;;;;;;;7.60;1.98;;;15.70;97.70;;;;;;5085178;28;20081;-58
2021/10/27 02:18:43;;;;;;;11.10;1.90;;;15.70;97.80;;;;;;5084558;28;20519;-58
2021/10/27 02:21:10;;;;;;;9.55;1.90;;;15.70;97.90;;;;;;5084004;28;20515;-59
2021/10/27 02:23:36;;;;;;;5.90;1.63;;;15.70;97.90;;;;;;5084963;28;20134;-58
2021/10/27 02:26:03;;;;;;;6.50;1.52;;;15.70;98.00;;;;;;5080637;28;20143;-58
2021/10/27 02:28:30;;;;;;;8.63;1.98;;;15.70;98.10;;;;;;5084230;28;20374;-59
2021/10/27 02:30:57;;;;;;;10.50;2.05;;;15.70;98.00;;;;;;5084208;28;20082;-59
2021/10/27 02:33:24;;;;;;;9.02;2.20;;;15.70;98.10;;;;;;5083296;28;20508;-59
2021/10/27 02:35:51;;;;;;;7.60;2.58;;;15.70;98.10;;;;;;5081919;28;20135;-58
2021/10/27 02:38:41;;;;;;;9.65;2.22;;;15.60;98.20;;;;;;5082786;28;20044;-59
2021/10/27 02:41:09;;;;;;;5.57;1.80;;;15.60;98.30;;;;;;5083225;28;20142;-58
2021/10/27 02:43:36;;;;;;;9.05;1.90;;;15.70;98.40;;;;;;5081623;28;20537;-58
2021/10/27 02:46:03;;;;;;;10.00;2.20;;;15.60;98.50;;;;;;5082272;28;20076;-58
2021/10/27 02:48:30;;;;;;;4.65;1.50;;;15.60;98.60;;;;;;5082780;28;20126;-59
2021/10/27 02:50:57;;;;;;;8.48;2.15;;;15.50;98.60;;;;;;5084894;28;20079;-59
2021/10/27 02:53:24;;;;;;;4.97;1.52;;;15.60;98.70;;;;;;5084531;28;20130;-59
2021/10/27 02:55:51;;;;;;;7.85;2.22;;;15.50;98.60;;;;;;5085170;28;20078;-58
2021/10/27 02:58:17;;;;;;;3.90;1.20;;;15.50;98.60;;;;;;5084099;28;20109;-58
2021/10/27 03:00:44;;;;;;;4.80;1.60;;;15.50;98.60;;;;;;5084643;28;20044;-58
2021/10/27 03:03:11;;;;;;;5.28;1.08;;;15.50;98.40;;;;;;5083817;28;20044;-59
2021/10/27 03:05:38;;;;;;;3.28;0.77;;;15.50;97.70;;;;;;5084806;28;20044;-59
2021/10/27 03:08:05;;;;;;;4.15;1.00;;;15.50;97.50;;;;;;5084644;28;20047;-59
2021/10/27 03:10:31;;;;;;;1.48;0.70;;;15.50;97.30;;;;;;5084970;28;20123;-59
2021/10/27 03:12:58;;;;;;;2.70;0.73;;;15.50;96.90;;;;;;5085011;28;20051;-59
2021/10/27 03:15:25;;;;;;;4.50;0.82;;;15.50;96.90;;;;;;5083522;28;20626;-59
2021/10/27 03:17:53;;;;;;;4.00;0.95;;;15.50;96.90;;;;;;5082306;28;20123;-58
2021/10/27 03:20:21;;;;;;;2.25;0.80;;;15.60;96.80;;;;;;5084538;28;20040;-58
2021/10/27 03:22:48;;;;;;;3.35;0.70;;;15.60;96.90;;;;;;5082923;28;20048;-58
2021/10/27 03:25:15;;;;;;;3.85;0.75;;;15.60;96.90;;;;;;5084236;28;20078;-58
2021/10/27 03:27:42;;;;;;;4.07;1.02;;;15.60;96.90;;;;;;5084023;28;20040;-58
2021/10/27 03:30:09;;;;;;;2.97;1.02;;;15.50;97.10;;;;;;5082568;28;20134;-59
2021/10/27 03:32:36;;;;;;;2.88;1.05;;;15.50;97.20;;;;;;5082143;28;20440;-58
2021/10/27 03:35:03;;;;;;;2.35;0.90;;;15.50;97.30;;;;;;5082474;28;20090;-59
2021/10/27 03:37:30;;;;;;;3.45;0.70;;;15.50;97.40;;;;;;5082594;28;20144;-59
2021/10/27 03:39:57;;;;;;;4.70;1.55;;;15.50;97.50;;;;;;5081202;28;20048;-59
2021/10/27 03:42:24;;;;;;;3.67;1.10;;;15.50;97.50;;;;;;5082426;28;20521;-59
2021/10/27 03:44:50;;;;;;;2.97;0.90;;;15.50;97.60;;;;;;5082829;28;20112;-59
2021/10/27 03:47:19;;;;;;;4.10;1.00;;;15.50;97.60;;;;;;5083518;28;20514;-59
2021/10/27 03:49:48;;;;;;;3.42;0.90;;;15.40;97.50;;;;;;5085547;28;20098;-59
2021/10/27 03:52:15;;;;;;;3.58;0.80;;;15.50;97.60;;;;;;5085660;28;20135;-59
2021/10/27 03:54:42;;;;;;;2.05;0.98;;;15.50;97.60;;;;;;5084098;28;20282;-59
2021/10/27 03:57:09;;;;;;;2.63;0.82;;;15.50;97.50;;;;;;5085326;28;20071;-59
2021/10/27 03:59:35;;;;;;;5.63;1.30;;;15.50;97.60;;;;;;5084581;28;20127;-59
2021/10/27 04:02:03;;;;;;;5.78;1.00;;;15.50;97.80;;;;;;5084565;28;20698;-58
2021/10/27 04:04:30;;;;;;;4.50;1.20;;;15.50;97.80;;;;;;5084055;28;20068;-58
2021/10/27 04:06:57;;;;;;;3.75;1.10;;;15.40;98.00;;;;;;5083053;28;20131;-58
2021/10/27 04:09:24;;;;;;;7.53;1.50;;;15.40;98.10;;;;;;5085006;28;20097;-58
2021/10/27 04:11:52;;;;;;;4.22;1.55;;;15.40;98.30;;;;;;5084143;28;20075;-58
2021/10/27 04:14:19;;;;;;;7.25;1.17;;;15.40;98.60;;;;;;5084682;28;20075;-59
2021/10/27 04:16:45;;;;;;;3.30;1.10;;;15.30;98.70;;;;;;5085121;28;20119;-58
2021/10/27 04:19:15;;;;;;;5.72;1.10;;;15.30;98.90;;;;;;5085881;28;20650;-59
2021/10/27 04:21:44;;;;;;;5.43;1.50;;;15.20;99.00;;;;;;5084917;28;20076;-59
2021/10/27 04:24:11;;;;;;;5.50;0.90;;;15.20;99.20;;;;;;5085788;28;20068;-59
2021/10/27 04:26:38;;;;;;;8.30;1.25;;;15.20;99.10;;;;;;5085932;28;20082;-58
2021/10/27 04:29:04;;;;;;;5.22;1.23;;;15.10;99.10;;;;;;5085741;28;20130;-58
2021/10/27 04:31:31;;;;;;;2.85;1.10;;;15.20;99.10;;;;;;5090126;28;20071;-59
2021/10/27 04:33:58;;;;;;;4.88;1.02;;;15.10;99.30;;;;;;5089111;28;20631;-58
2021/10/27 04:36:25;;;;;;;6.88;1.35;;;15.10;99.20;;;;;;5089943;28;20585;-58
2021/10/27 04:38:52;;;;;;;6.13;1.00;;;15.10;99.00;;;;;;5087455;28;20106;-58
2021/10/27 04:41:19;;;;;;;5.03;1.25;;;15.10;99.00;;;;;;5088030;28;20101;-58
2021/10/27 04:43:46;;;;;;;6.00;1.10;;;15.20;98.90;;;;;;5085506;28;20071;-58
2021/10/27 04:46:12;;;;;;;5.90;1.10;;;15.20;98.80;;;;;;5087678;28;20120;-58
2021/10/27 04:48:39;;;;;;;3.15;1.10;;;15.20;98.70;;;;;;5080636;28;20036;-58
2021/10/27 04:51:06;;;;;;;4.60;1.35;;;15.20;98.70;;;;;;5068497;28;20505;-59
2021/10/27 04:53:34;;;;;;;5.82;1.48;;;15.20;98.60;;;;;;5085554;28;20080;-59
2021/10/27 04:56:00;;;;;;;5.30;0.95;;;15.20;98.50;;;;;;5085449;28;20075;-58
2021/10/27 04:58:30;;;;;;;4.70;1.35;;;15.20;98.40;;;;;;5084300;28;20048;-59
2021/10/27 05:00:57;;;;;;;4.68;1.10;;;15.30;98.40;;;;;;5085351;28;20130;-59
2021/10/27 05:03:24;;;;;;;4.05;2.15;;;15.30;98.30;;;;;;5083979;28;20044;-58
2021/10/27 05:05:54;;;;;;;6.60;1.10;;;15.30;98.30;;;;;;5085474;28;20094;-58
2021/10/27 05:08:24;;;;;;;6.60;1.80;;;15.30;98.30;;;;;;5085485;28;20068;-58
2021/10/27 05:10:51;;;;;;;5.15;1.15;;;15.30;98.20;;;;;;5082692;28;20048;-59
2021/10/27 05:13:19;;;;;;;5.32;1.20;;;15.30;98.20;;;;;;5080564;28;20109;-58
2021/10/27 05:15:49;;;;;;;3.40;1.10;;;15.30;98.00;;;;;;5081946;28;20137;-58
2021/10/27 05:18:16;;;;;;;7.03;1.38;;;15.30;98.00;;;;;;5077417;28;20047;-58
2021/10/27 05:20:44;;;;;;;6.28;1.60;;;15.30;97.90;;;;;;5080806;28;20039;-59
2021/10/27 05:23:11;;;;;;;5.85;1.65;;;15.30;97.90;;;;;;5080826;28;20051;-58
2021/10/27 05:25:38;;;;;;;6.25;1.40;;;15.30;97.80;;;;;;5079530;28;20079;-58
2021/10/27 05:28:05;;;;;;;8.40;1.40;;;15.30;97.70;;;;;;5079583;28;20225;-59
2021/10/27 05:30:32;;;;;;;9.02;1.88;;;15.30;97.70;;;;;;5079804;28;20143;-58
2021/10/27 05:32:58;;;;;;;5.57;1.13;;;15.30;97.60;;;;;;5080388;28;20132;-59
2021/10/27 05:35:26;;;;;;;5.38;1.10;;;15.30;97.50;;;;;;5080597;28;20040;-59
2021/10/27 05:37:53;;;;;;;5.60;1.70;;;15.30;97.50;;;;;;5079632;28;20406;-58
2021/10/27 05:40:21;;;;;;;5.00;1.88;;;15.30;97.40;;;;;;5080296;28;20597;-59
2021/10/27 05:42:48;;;;;;;3.65;1.00;;;15.30;97.20;;;;;;5078718;28;20131;-59
2021/10/27 05:45:15;;;;;;;8.80;2.17;;;15.30;97.10;;;;;;5079180;28;20050;-58
2021/10/27 05:47:49;;;;;;;4.00;1.30;;;15.30;97.00;;;;;;5078918;28;20083;-59
2021/10/27 05:55:33;;;;;;;5.50;1.77;;;15.30;96.90;;;;;;5079834;28;20627;-59
2021/10/27 05:58:01;;;;;;;4.32;1.08;;;15.40;97.00;;;;;;5062098;28;20139;-59
2021/10/27 06:00:28;;;;;;;6.25;1.30;;;15.40;96.80;;;;;;5080039;28;20071;-59
2021/10/27 06:02:55;;;;;;;11.20;1.63;;;15.40;96.80;;;;;;5079004;28;20097;-59
2021/10/27 06:05:22;;;;;;;8.25;1.10;;;15.40;96.90;;;;;;5080346;28;20131;-58
2021/10/27 06:07:49;;;;;;;3.20;0.90;;;15.40;96.80;;;;;;5077632;28;20063;-61
2021/10/27 06:10:22;;;;;;;10.18;1.33;;;15.40;96.60;;;;;;5080029;28;20086;-58
2021/10/27 06:12:51;;;;;;;5.28;1.70;;;15.40;96.60;;;;;;5078805;28;20067;-59
2021/10/27 06:15:22;;;;;;;4.88;1.48;;;15.40;96.80;;;;;;5079340;28;20460;-59
2021/10/27 06:17:52;;;;;;;7.03;1.55;;;15.40;96.90;;;;;;5079496;28;20484;-58
2021/10/27 06:20:19;;;;;;;4.32;1.35;;;15.40;96.90;;;;;;5079908;28;20060;-59
2021/10/27 06:22:48;;;;;;;4.82;1.00;;;15.30;97.10;;;;;;5076995;28;20183;-59
2021/10/27 06:25:15;;;;;;;8.30;1.58;;;15.30;97.20;;;;;;5077685;28;20127;-59
2021/10/27 06:27:46;;;;;;;4.82;1.25;;;15.30;97.30;;;;;;5080380;28;20063;-59
2021/10/27 06:35:14;;;;;;;7.30;1.63;;;15.30;97.50;;;;;;5079675;28;20556;-59
2021/10/27 06:46:22;;;;;;;5.93;1.73;;;15.10;98.40;;;;;;5079503;28;20532;-60
2021/10/27 06:48:47;;;;;;;5.53;1.30;;;15.10;98.50;;;;;;5076200;28;20119;-59
2021/10/27 06:51:14;;;;;;;7.03;2.00;;;15.00;98.60;;;;;;5079082;28;20164;-59
2021/10/27 06:53:42;;;;;;;4.97;1.30;;;15.00;98.50;;;;;;5078939;28;21009;-59
2021/10/27 06:56:12;;;;;;;5.68;1.58;;;15.00;98.60;;;;;;5079920;28;20570;-59
2021/10/27 06:58:59;;;;;;;6.90;1.88;;;15.10;98.50;;;;;;5078829;28;20123;-58
2021/10/27 07:01:41;;;;;;;6.78;1.40;;;15.10;98.70;;;;;;5044383;28;20087;-59
2021/10/27 07:15:35;;;;;;;5.25;1.55;;;15.10;98.30;;;;;;5067251;28;20174;-60
2021/10/27 07:18:02;;;;;;;7.25;1.55;;;15.10;98.20;;;;;;5077615;28;20136;-59
2021/10/27 07:20:29;;;;;;;6.18;2.40;;;15.10;98.00;;;;;;5077997;28;20139;-60
2021/10/27 07:23:00;;;;;;;7.18;1.25;;;15.20;98.10;;;;;;5076710;28;20136;-60
2021/10/27 07:25:33;;;;;;;3.92;1.23;;;15.20;98.00;;;;;;5075935;28;20438;-60
2021/10/27 07:28:00;;;;;;;5.15;1.50;;;15.20;97.90;;;;;;5074436;28;20131;-60
2021/10/27 07:30:27;;;;;;;6.03;1.60;;;15.20;97.90;;;;;;5074357;28;20105;-60
2021/10/27 07:32:56;;;;;;;6.70;1.33;;;15.20;98.00;;;;;;5077782;28;20048;-60
2021/10/27 07:40:55;;;;;;;3.67;1.30;;;15.20;97.90;;;;;;5079147;28;20086;-59
2021/10/27 07:43:26;;;;;;;3.25;1.10;;;15.30;97.90;;;;;;5075905;28;20138;-58
2021/10/27 07:45:54;;;;;;;7.10;1.40;;;15.30;97.80;;;;;;5075478;28;20082;-58
2021/10/27 07:48:21;;;;;;;5.35;1.70;;;15.30;97.80;;;;;;5076173;28;20059;-59
2021/10/27 07:50:48;;;;;;;7.60;2.03;;;15.40;97.60;;;;;;5075510;28;20075;-59
2021/10/27 07:53:14;;;;;;;5.10;1.20;;;15.40;97.50;;;;;;5077403;28;20524;-58
2021/10/27 07:55:42;;;;;;;3.03;1.23;;;15.40;97.40;;;;;;5076457;28;20468;-59
2021/10/27 07:58:10;;;;;;;6.88;1.40;;;15.50;97.50;;;;;;5073497;28;20127;-58
2021/10/27 08:00:37;;;;;;;4.30;1.75;;;15.50;97.30;;;;;;5073823;28;20154;-59
2021/10/27 08:03:03;;;;;;;5.88;2.15;;;15.50;97.10;;;;;;5075133;28;20510;-59
2021/10/27 08:05:38;;;;;;;6.40;1.33;;;15.50;97.20;;;;;;5075226;28;20139;-59
2021/10/27 08:08:08;;;;;;;6.47;1.52;;;15.60;97.10;;;;;;5076899;28;20048;-61
2021/10/27 08:10:34;;;;;;;7.65;1.90;;;15.60;96.90;;;;;;5075837;28;20131;-60
2021/10/27 08:13:01;;;;;;;7.72;1.50;;;15.60;96.60;;;;;;5077852;28;20126;-58
2021/10/27 08:15:28;;;;;;;5.10;1.67;;;15.60;96.50;;;;;;5076529;28;20108;-59
2021/10/27 08:17:55;;;;;;;7.03;1.20;;;15.60;96.30;;;;;;5076884;28;20463;-59
2021/10/27 08:20:23;;;;;;;5.28;1.92;;;15.60;96.50;;;;;;5077363;28;20056;-59
2021/10/27 08:23:02;;;;;;;7.32;1.30;;;15.60;96.30;;;;;;5077627;28;20091;-58
2021/10/27 08:25:34;;;;;;;8.65;1.60;;;15.70;96.10;;;;;;5076960;28;20113;-58
2021/10/27 08:28:05;;;;;;;9.00;1.97;;;15.60;96.10;;;;;;5077488;28;20139;-57
2021/10/27 08:30:36;;;;;;;5.10;1.30;;;15.70;96.20;;;;;;5072895;28;20130;-58
2021/10/27 08:33:06;;;;;;;5.65;1.13;;;15.70;96.10;;;;;;5077105;28;20375;-58
2021/10/27 08:35:34;;;;;;;9.77;1.33;;;15.70;96.00;;;;;;5079271;28;20044;-58
2021/10/27 08:38:02;;;;;;;5.28;1.30;;;15.70;95.70;;;;;;5080492;28;20045;-58
2021/10/27 08:40:29;;;;;;;9.32;1.30;;;15.80;95.90;;;;;;5079587;28;20067;-58
2021/10/27 08:42:56;;;;;;;8.18;1.77;;;15.80;95.20;;;;;;5076154;28;20086;-58
2021/10/27 08:45:24;;;;;;;6.07;1.30;;;15.80;95.30;;;;;;5075142;28;20487;-58
2021/10/27 08:47:58;;;;;;;7.13;1.60;;;15.80;95.00;;;;;;5072270;28;20442;-59
2021/10/27 08:50:25;;;;;;;6.30;1.52;;;16.00;95.10;;;;;;5077198;28;20134;-59
2021/10/27 08:52:52;;;;;;;6.07;1.75;;;16.00;94.60;;;;;;5077872;28;20075;-59
2021/10/27 08:55:19;;;;;;;7.82;1.80;;;16.00;94.80;;;;;;5077378;28;20134;-59
2021/10/27 08:57:48;;;;;;;4.75;1.08;;;16.00;94.20;;;;;;5077509;28;20465;-59
2021/10/27 09:00:21;;;;;;;5.75;1.38;;;16.00;94.50;;;;;;5076111;28;20302;-59
2021/10/27 09:03:05;;;;;;;6.72;1.90;;;16.00;94.60;;;;;;5076864;28;20155;-59
2021/10/27 09:17:16;;;;;;;9.38;2.20;;;16.20;94.40;;;;;;5082859;28;20051;-59
2021/10/27 09:34:59;;;;;;;6.80;1.75;;;16.30;93.90;;;;;;5086340;28;20546;-58
2021/10/27 09:37:50;;;;;;;11.32;2.65;;;16.30;94.20;;;;;;5083045;28;20040;-60
2021/10/27 09:40:46;;;;;;;6.43;1.65;;;16.40;93.80;;;;;;5086280;28;20129;-60
2021/10/27 10:05:16;;;;;;;3.42;1.45;;;16.90;91.00;;;;;;5082436;28;20510;-58
2021/10/27 10:07:43;;;;;;;6.65;1.30;;;17.00;90.80;;;;;;5086287;28;20460;-58
2021/10/27 10:10:10;;;;;;;4.80;1.02;;;17.00;89.90;;;;;;5084255;28;20120;-58
2021/10/27 10:12:48;;;;;;;6.65;1.33;;;17.10;89.00;;;;;;5086130;28;20127;-58
2021/10/27 10:15:18;;;;;;;6.13;1.35;;;17.10;87.60;;;;;;5085302;28;20071;-57
2021/10/27 10:17:45;;;;;;;7.75;2.15;;;17.10;88.20;;;;;;5083273;28;20079;-60
2021/10/27 10:20:12;;;;;;;4.10;1.10;;;17.10;89.70;;;;;;5064555;28;20040;-60
2021/10/27 10:23:19;;;;;;;4.32;1.27;;;17.20;89.00;;;;;;5082820;28;20051;-59
2021/10/27 10:25:56;;;;;;;3.72;1.50;;;17.20;89.80;;;;;;5065472;28;20075;-59
2021/10/27 10:28:25;;;;;;;4.63;1.25;;;17.30;88.50;;;;;;5080316;28;20067;-59
2021/10/27 10:30:55;;;;;;;5.25;1.10;;;17.20;89.60;;;;;;5084579;28;20051;-60
2021/10/27 10:33:35;;;;;;;4.82;1.00;;;17.30;90.00;;;;;;5083067;28;20076;-60
2021/10/27 10:36:05;;;;;;;6.50;1.50;;;17.30;88.20;;;;;;5085629;28;20514;-60
2021/10/27 11:25:14;;;;;;;8.60;1.90;;;18.40;86.00;;;;;;5080297;28;20135;-60
2021/10/27 11:42:05;;;;;;;8.73;1.92;;;18.00;88.00;;;;;;5076223;28;20090;-60
2021/10/27 11:44:45;;;;;;;13.55;2.97;;;18.10;88.60;;;;;;5077832;28;20075;-60
2021/10/27 11:47:14;;;;;;;6.28;1.85;;;18.10;87.70;;;;;;5078998;28;20147;-60
2021/10/27 11:49:52;;;;;;;12.23;2.33;;;18.00;88.20;;;;;;5079154;28;20134;-60
2021/10/27 11:52:19;;;;;;;5.63;1.90;;;18.00;88.60;;;;;;5077474;28;20159;-59
2021/10/27 11:54:56;;;;;;;4.75;1.52;;;18.00;88.60;;;;;;5077726;28;20063;-60
2021/10/27 11:57:29;;;;;;;4.43;1.52;;;17.90;88.70;;;;;;5076162;28;20476;-60
2021/10/27 11:59:56;;;;;;;7.93;1.83;;;17.90;88.90;;;;;;5076029;28;20468;-59
2021/10/27 12:02:25;;;;;;;8.40;1.77;;;18.00;89.30;;;;;;5074694;28;20119;-60
2021/10/27 12:04:53;;;;;;;5.80;1.67;;;18.20;85.60;;;;;;5079194;28;20139;-60
2021/10/27 12:07:38;;;;;;;7.93;1.98;;;18.40;85.20;;;;;;5077059;28;20539;-60
2021/10/27 12:10:25;;;;;;;5.72;1.85;;;18.70;85.00;;;;;;5071534;28;20150;-60
2021/10/27 12:13:18;;;;;;;10.90;2.20;;;18.90;85.90;;;;;;5078550;28;20565;-60
2021/10/27 12:16:02;;;;;;;5.45;1.58;;;18.70;82.70;;;;;;5077620;28;20048;-59
2021/10/27 12:18:31;;;;;;;7.00;1.27;;;18.70;83.20;;;;;;5077949;28;20578;-60
2021/10/27 12:21:02;;;;;;;7.05;1.70;;;18.50;83.70;;;;;;5060638;28;20063;-60
2021/10/27 12:23:34;;;;;;;4.72;1.48;;;18.40;84.50;;;;;;5076580;28;20129;-60
2021/10/27 12:26:06;;;;;;;5.60;2.05;;;18.30;83.20;;;;;;5059011;28;20131;-60
2021/10/27 12:28:36;;;;;;;9.07;1.77;;;18.20;83.10;;;;;;5071388;28;20059;-59
2021/10/27 12:31:24;;;;;;;5.45;1.50;;;18.30;83.60;;;;;;5068750;28;20192;-60
2021/10/27 12:33:51;;;;;;;4.93;1.30;;;18.40;82.00;;;;;;5072156;28;20089;-59
2021/10/27 12:39:12;;;;;;;5.47;1.50;;;18.80;81.90;;;;;;5077782;28;20131;-60
2021/10/27 12:41:39;;;;;;;9.30;2.08;;;18.90;80.80;;;;;;5079813;28;20456;-59
2021/10/27 12:44:23;;;;;;;4.60;1.75;;;18.80;81.70;;;;;;5078051;28;20641;-59
2021/10/27 12:47:06;;;;;;;9.35;1.60;;;18.70;82.00;;;;;;5076410;28;20087;-59
2021/10/27 12:49:33;;;;;;;6.15;2.53;;;18.60;81.30;;;;;;5076697;28;20774;-59
2021/10/27 12:52:19;;;;;;;5.90;1.65;;;18.50;82.50;;;;;;5079294;28;20451;-60
2021/10/27 12:54:46;;;;;;;4.97;2.05;;;18.60;82.20;;;;;;5080921;28;20123;-60
2021/10/27 12:57:15;;;;;;;5.47;1.90;;;18.80;82.50;;;;;;5079856;28;20203;-59
2021/10/27 12:59:44;;;;;;;7.53;1.55;;;18.90;82.20;;;;;;5080266;28;20063;-60
2021/10/27 13:02:21;;;;;;;8.38;1.70;;;18.80;81.70;;;;;;5080241;28;20128;-59
2021/10/27 13:07:23;;;;;;;9.57;2.20;;;18.80;81.30;;;;;;5080933;28;20703;-60
2021/10/27 13:10:07;;;;;;;9.52;3.10;;;18.70;82.30;;;;;;5079424;28;20497;-60
2021/10/27 13:12:55;;;;;;;8.70;1.98;;;18.70;82.90;;;;;;5080330;28;20048;-59
2021/10/27 13:31:23;;;;;;;10.95;2.22;;;18.50;85.60;;;;;;5081687;28;20135;-60
2021/10/27 13:33:50;;;;;;;8.60;2.10;;;18.40;86.00;;;;;;5052260;28;20488;-59
2021/10/27 13:36:16;;;;;;;6.95;2.50;;;18.30;85.70;;;;;;5082029;28;20129;-60
2021/10/27 13:38:45;;;;;;;8.30;1.92;;;18.20;86.10;;;;;;5080942;28;20131;-59
2021/10/27 13:41:12;;;;;;;5.55;1.60;;;17.90;87.00;;;;;;5080804;28;20043;-59
2021/10/27 13:44:06;;;;;;;4.13;1.38;;;17.90;88.50;;;;;;5080780;28;20056;-60
2021/10/27 13:47:18;;;;;;;3.55;1.50;;;17.80;88.80;;;;;;5079694;28;20083;-59
2021/10/27 13:49:44;;;;;;;8.82;2.63;;;17.90;88.70;;;;;;5074405;28;20131;-59
2021/10/27 14:06:02;;;;;;;3.42;1.20;;;18.10;86.00;;;;;;5081240;28;20137;-59
2021/10/27 14:41:21;;;;;;;4.43;1.60;;;20.50;75.50;;;;;;5080281;28;20051;-59
2021/10/27 15:32:34;;;;;;;6.22;1.85;;;21.10;71.30;;;;;;5082062;28;20654;-59
2021/10/27 15:51:28;;;;;;;4.95;1.60;;;19.80;75.80;;;;;;5082288;28;20158;-58
2021/10/27 15:53:56;;;;;;;6.60;1.63;;;19.60;76.90;;;;;;5082178;28;20044;-59
2021/10/27 15:56:22;;;;;;;9.35;2.15;;;19.30;78.20;;;;;;5082536;28;20140;-58
2021/10/27 15:58:49;;;;;;;5.97;1.75;;;19.00;79.70;;;;;;5079676;28;20590;-60
2021/10/27 16:01:18;;;;;;;7.15;1.60;;;18.60;80.90;;;;;;5079350;28;20062;-58
2021/10/27 16:03:45;;;;;;;5.60;1.80;;;18.20;82.80;;;;;;5079217;28;20047;-59
2021/10/27 16:06:15;;;;;;;6.68;1.83;;;17.80;84.80;;;;;;5079586;28;20127;-58
2021/10/27 16:08:45;;;;;;;7.47;2.17;;;17.70;86.10;;;;;;5080135;28;20079;-58
2021/10/27 16:11:12;;;;;;;6.50;1.63;;;17.50;86.90;;;;;;5079590;28;20071;-58
2021/10/27 16:13:39;;;;;;;6.22;1.95;;;17.30;88.00;;;;;;5079672;28;20151;-58
2021/10/27 16:16:06;;;;;;;7.35;2.03;;;17.20;88.50;;;;;;5084185;28;20143;-58
2021/10/27 16:18:34;;;;;;;5.22;1.70;;;17.10;89.10;;;;;;5082974;28;20060;-58
2021/10/27 16:21:02;;;;;;;6.38;1.65;;;17.00;90.00;;;;;;5082282;28;20052;-58
2021/10/27 16:23:31;;;;;;;4.10;1.55;;;16.90;90.20;;;;;;5081844;28;20274;-58
2021/10/27 16:25:58;;;;;;;8.57;2.28;;;16.80;90.40;;;;;;5079798;28;20251;-60
2021/10/27 16:28:25;;;;;;;8.15;1.58;;;16.70;91.00;;;;;;5076629;28;20087;-59
2021/10/27 16:30:53;;;;;;;4.88;1.35;;;16.60;91.10;;;;;;5080351;28;20094;-59
2021/10/27 16:33:23;;;;;;;7.30;1.70;;;16.60;91.20;;;;;;5077606;28;20036;-59
2021/10/27 16:35:50;;;;;;;4.93;1.88;;;16.50;91.20;;;;;;5075116;28;20075;-59
2021/10/27 16:38:17;;;;;;;7.82;1.83;;;16.50;91.90;;;;;;5076981;28;20044;-59
2021/10/27 16:40:45;;;;;;;8.07;1.92;;;16.40;91.80;;;;;;5072119;28;20465;-59
2021/10/27 16:43:12;;;;;;;8.63;1.50;;;16.40;92.30;;;;;;5072144;28;20060;-60
2021/10/27 16:45:39;;;;;;;6.32;1.35;;;16.30;92.70;;;;;;5075705;28;20101;-60
2021/10/27 16:48:07;;;;;;;5.72;1.92;;;16.20;92.40;;;;;;5077456;28;20095;-59
2021/10/27 16:50:34;;;;;;;10.27;2.13;;;16.20;92.20;;;;;;5077921;28;20109;-58
2021/10/27 16:53:01;;;;;;;7.35;2.30;;;16.10;92.70;;;;;;5074411;28;20134;-58
2021/10/27 16:55:28;;;;;;;8.82;3.53;;;16.10;92.70;;;;;;5078178;28;20036;-58
2021/10/27 16:57:57;;;;;;;7.60;2.28;;;16.00;92.60;;;;;;5077833;28;20506;-58
2021/10/27 17:00:26;;;;;;;5.15;1.85;;;15.90;93.10;;;;;;5075303;28;20051;-58
2021/10/27 17:02:53;;;;;;;6.47;2.22;;;15.80;93.10;;;;;;5076243;28;20080;-58
2021/10/27 17:05:20;;;;;;;5.18;1.67;;;15.70;93.30;;;;;;5075558;28;20071;-58
2021/10/27 17:07:47;;;;;;;11.63;2.15;;;15.60;93.60;;;;;;5073261;28;20798;-58
2021/10/27 17:10:16;;;;;;;9.40;2.60;;;15.50;93.60;;;;;;5072223;28;20439;-58
2021/10/27 17:12:43;;;;;;;9.05;2.80;;;15.40;94.30;;;;;;5077214;28;20155;-58
2021/10/27 17:15:10;;;;;;;11.50;2.05;;;15.40;94.30;;;;;;5075986;28;20075;-58
2021/10/27 17:17:38;;;;;;;6.80;2.28;;;15.30;94.40;;;;;;5077312;28;20175;-58
2021/10/27 17:20:05;;;;;;;10.35;2.35;;;15.20;93.90;;;;;;5077832;28;20480;-58
2021/10/27 17:22:38;;;;;;;8.27;1.70;;;15.20;94.50;;;;;;5077479;28;20047;-58
2021/10/27 17:25:05;;;;;;;5.68;2.15;;;15.10;94.80;;;;;;5076900;28;20495;-58
2021/10/27 17:27:36;;;;;;;9.73;1.90;;;15.10;94.50;;;;;;5076727;28;20146;-58
2021/10/27 17:30:05;;;;;;;8.73;2.25;;;15.00;94.90;;;;;;5076681;28;20075;-58
2021/10/27 17:32:32;;;;;;;6.63;2.15;;;15.00;95.00;;;;;;5077266;28;20456;-58
2021/10/27 17:34:59;;;;;;;8.63;2.10;;;14.90;94.90;;;;;;5077462;28;20477;-58